sensor_id;sensor_type;location;lat;lon;timestamp;pressure;altitude;pressure_sealevel;temperature;humidity
19736;BME280;32064;49.310;8.646;2023-04-10T00:01:37;101154.59;;;11.48;52.59
19736;BME280;32064;49.310;8.646;2023-04-10T00:04:03;101144.31;;;11.43;52.66
19736;BME280;32064;49.310;8.646;2023-04-10T00:06:29;101145.53;;;11.38;52.60
19736;BME280;32064;49.310;8.646;2023-04-10T00:08:56;101140.97;;;11.41;52.66
19736;BME280;32064;49.310;8.646;2023-04-10T00:11:22;101143.59;;;11.41;52.88
19736;BME280;32064;49.310;8.646;2023-04-10T00:13:48;101139.25;;;11.40;51.89
19736;BME280;32064;49.310;8.646;2023-04-10T00:16:13;101136.06;;;11.35;51.54
19736;BME280;32064;49.310;8.646;2023-04-10T00:18:39;101142.25;;;11.34;53.00
19736;BME280;32064;49.310;8.646;2023-04-10T00:21:05;101137.09;;;11.33;51.92
19736;BME280;32064;49.310;8.646;2023-04-10T00:23:30;101132.94;;;11.29;52.82
19736;BME280;32064;49.310;8.646;2023-04-10T00:25:59;101138.59;;;11.22;51.86
19736;BME280;32064;49.310;8.646;2023-04-10T00:28:25;101142.00;;;11.24;52.32
19736;BME280;32064;49.310;8.646;2023-04-10T00:30:51;101144.91;;;11.20;51.83
19736;BME280;32064;49.310;8.646;2023-04-10T00:33:16;101155.25;;;11.23;52.25
19736;BME280;32064;49.310;8.646;2023-04-10T00:35:42;101152.59;;;11.23;51.71
19736;BME280;32064;49.310;8.646;2023-04-10T00:38:07;101148.28;;;11.22;53.78
19736;BME280;32064;49.310;8.646;2023-04-10T00:40:33;101148.28;;;11.22;52.51
19736;BME280;32064;49.310;8.646;2023-04-10T00:42:58;101156.19;;;11.22;52.70
19736;BME280;32064;49.310;8.646;2023-04-10T00:45:24;101151.13;;;11.19;52.71
19736;BME280;32064;49.310;8.646;2023-04-10T00:47:50;101150.53;;;11.14;52.59
19736;BME280;32064;49.310;8.646;2023-04-10T00:50:15;101149.03;;;11.10;52.28
19736;BME280;32064;49.310;8.646;2023-04-10T00:52:41;101152.00;;;11.04;53.92
19736;BME280;32064;49.310;8.646;2023-04-10T00:55:07;101152.31;;;10.99;54.43
19736;BME280;32064;49.310;8.646;2023-04-10T00:57:33;101149.09;;;10.94;53.58
19736;BME280;32064;49.310;8.646;2023-04-10T00:59:58;101158.97;;;10.90;53.48
19736;BME280;32064;49.310;8.646;2023-04-10T01:02:24;101150.38;;;10.87;53.44
19736;BME280;32064;49.310;8.646;2023-04-10T01:04:51;101157.38;;;10.88;54.68
19736;BME280;32064;49.310;8.646;2023-04-10T01:07:27;101146.06;;;10.86;53.01
19736;BME280;32064;49.310;8.646;2023-04-10T01:13:05;101149.16;;;10.78;55.24
19736;BME280;32064;49.310;8.646;2023-04-10T01:15:41;101145.00;;;10.74;53.97
19736;BME280;32064;49.310;8.646;2023-04-10T01:18:25;101138.13;;;10.71;55.04
19736;BME280;32064;49.310;8.646;2023-04-10T01:20:54;101135.50;;;10.71;53.83
19736;BME280;32064;49.310;8.646;2023-04-10T01:23:41;101140.00;;;10.69;55.07
19736;BME280;32064;49.310;8.646;2023-04-10T01:26:11;101146.88;;;10.72;53.95
19736;BME280;32064;49.310;8.646;2023-04-10T01:29:00;101141.97;;;10.66;54.76
19736;BME280;32064;49.310;8.646;2023-04-10T01:31:37;101143.00;;;10.63;55.28
19736;BME280;32064;49.310;8.646;2023-04-10T01:34:09;101141.50;;;10.59;54.28
19736;BME280;32064;49.310;8.646;2023-04-10T01:36:45;101139.97;;;10.55;54.86
19736;BME280;32064;49.310;8.646;2023-04-10T01:39:13;101155.69;;;10.56;55.69
19736;BME280;32064;49.310;8.646;2023-04-10T01:41:43;101164.78;;;10.51;53.85
19736;BME280;32064;49.310;8.646;2023-04-10T01:44:12;101162.41;;;10.46;55.16
19736;BME280;32064;49.310;8.646;2023-04-10T01:46:39;101158.16;;;10.44;55.76
19736;BME280;32064;49.310;8.646;2023-04-10T01:49:05;101164.25;;;10.44;54.55
19736;BME280;32064;49.310;8.646;2023-04-10T01:51:31;101161.72;;;10.43;54.47
19736;BME280;32064;49.310;8.646;2023-04-10T01:53:59;101153.84;;;10.43;54.47
19736;BME280;32064;49.310;8.646;2023-04-10T01:56:26;101154.84;;;10.40;55.64
19736;BME280;32064;49.310;8.646;2023-04-10T01:58:53;101148.81;;;10.38;56.10
19736;BME280;32064;49.310;8.646;2023-04-10T02:01:21;101150.72;;;10.36;54.57
19736;BME280;32064;49.310;8.646;2023-04-10T02:03:47;101157.84;;;10.34;56.12
19736;BME280;32064;49.310;8.646;2023-04-10T02:06:36;101154.56;;;10.30;56.56
19736;BME280;32064;49.310;8.646;2023-04-10T02:09:20;101162.50;;;10.29;55.59
19736;BME280;32064;49.310;8.646;2023-04-10T02:12:04;101147.81;;;10.25;55.99
19736;BME280;32064;49.310;8.646;2023-04-10T02:14:33;101152.47;;;10.20;56.32
19736;BME280;32064;49.310;8.646;2023-04-10T02:17:01;101147.13;;;10.21;55.42
19736;BME280;32064;49.310;8.646;2023-04-10T02:19:27;101141.28;;;10.16;55.17
19736;BME280;32064;49.310;8.646;2023-04-10T02:21:54;101140.34;;;10.17;55.24
19736;BME280;32064;49.310;8.646;2023-04-10T02:24:21;101142.31;;;10.14;55.99
19736;BME280;32064;49.310;8.646;2023-04-10T02:26:48;101137.13;;;10.12;56.77
19736;BME280;32064;49.310;8.646;2023-04-10T02:29:13;101132.91;;;10.09;55.58
19736;BME280;32064;49.310;8.646;2023-04-10T02:31:43;101139.00;;;10.10;56.82
19736;BME280;32064;49.310;8.646;2023-04-10T02:34:08;101137.22;;;10.10;55.88
19736;BME280;32064;49.310;8.646;2023-04-10T02:36:35;101127.16;;;10.03;56.47
19736;BME280;32064;49.310;8.646;2023-04-10T02:39:01;101131.03;;;10.11;57.06
19736;BME280;32064;49.310;8.646;2023-04-10T02:41:28;101129.25;;;10.12;56.54
19736;BME280;32064;49.310;8.646;2023-04-10T02:43:53;101122.47;;;10.08;55.85
19736;BME280;32064;49.310;8.646;2023-04-10T02:46:18;101128.94;;;10.02;57.00
19736;BME280;32064;49.310;8.646;2023-04-10T02:48:44;101121.72;;;10.06;57.06
19736;BME280;32064;49.310;8.646;2023-04-10T02:51:09;101122.72;;;10.03;55.72
19736;BME280;32064;49.310;8.646;2023-04-10T02:53:35;101126.38;;;10.01;57.13
19736;BME280;32064;49.310;8.646;2023-04-10T02:56:00;101120.94;;;10.04;55.78
19736;BME280;32064;49.310;8.646;2023-04-10T02:58:27;101126.53;;;9.98;56.94
19736;BME280;32064;49.310;8.646;2023-04-10T03:00:54;101123.16;;;9.96;56.21
19736;BME280;32064;49.310;8.646;2023-04-10T03:03:20;101121.34;;;9.96;57.51
19736;BME280;32064;49.310;8.646;2023-04-10T03:05:46;101114.53;;;9.94;56.82
19736;BME280;32064;49.310;8.646;2023-04-10T03:08:14;101113.22;;;10.01;57.37
19736;BME280;32064;49.310;8.646;2023-04-10T03:10:41;101112.22;;;10.03;56.49
19736;BME280;32064;49.310;8.646;2023-04-10T03:13:07;101112.28;;;10.02;56.62
19736;BME280;32064;49.310;8.646;2023-04-10T03:15:32;101113.41;;;9.98;57.63
19736;BME280;32064;49.310;8.646;2023-04-10T03:17:58;101110.28;;;9.91;57.34
19736;BME280;32064;49.310;8.646;2023-04-10T03:20:23;101110.94;;;9.95;56.20
19736;BME280;32064;49.310;8.646;2023-04-10T03:22:49;101113.81;;;9.90;56.48
19736;BME280;32064;49.310;8.646;2023-04-10T03:25:15;101106.47;;;9.97;57.07
19736;BME280;32064;49.310;8.646;2023-04-10T03:27:40;101102.03;;;9.97;57.48
19736;BME280;32064;49.310;8.646;2023-04-10T03:30:06;101099.00;;;9.89;56.75
19736;BME280;32064;49.310;8.646;2023-04-10T03:32:32;101099.00;;;9.89;57.91
19736;BME280;32064;49.310;8.646;2023-04-10T03:34:57;101097.38;;;9.86;57.75
19736;BME280;32064;49.310;8.646;2023-04-10T03:37:23;101089.00;;;9.80;58.30
19736;BME280;32064;49.310;8.646;2023-04-10T03:39:49;101091.03;;;9.75;57.70
19736;BME280;32064;49.310;8.646;2023-04-10T03:42:15;101077.63;;;9.79;57.60
19736;BME280;32064;49.310;8.646;2023-04-10T03:44:40;101074.69;;;9.85;57.84
19736;BME280;32064;49.310;8.646;2023-04-10T03:47:06;101068.41;;;9.88;56.76
19736;BME280;32064;49.310;8.646;2023-04-10T03:49:31;101061.44;;;9.87;58.04
19736;BME280;32064;49.310;8.646;2023-04-10T03:51:56;101066.03;;;9.83;57.15
19736;BME280;32064;49.310;8.646;2023-04-10T03:54:22;101067.47;;;9.89;58.00
19736;BME280;32064;49.310;8.646;2023-04-10T03:56:47;101071.53;;;9.79;58.32
19736;BME280;32064;49.310;8.646;2023-04-10T03:59:12;101066.78;;;9.70;57.45
19736;BME280;32064;49.310;8.646;2023-04-10T04:01:38;101067.13;;;9.63;58.06
19736;BME280;32064;49.310;8.646;2023-04-10T04:04:04;101062.97;;;9.75;57.52
19736;BME280;32064;49.310;8.646;2023-04-10T04:06:30;101065.34;;;9.80;57.44
19736;BME280;32064;49.310;8.646;2023-04-10T04:08:56;101073.06;;;9.83;57.52
19736;BME280;32064;49.310;8.646;2023-04-10T04:11:21;101067.28;;;9.76;57.36
19736;BME280;32064;49.310;8.646;2023-04-10T04:13:46;101075.50;;;9.70;57.94
19736;BME280;32064;49.310;8.646;2023-04-10T04:16:12;101079.00;;;9.71;58.30
19736;BME280;32064;49.310;8.646;2023-04-10T04:18:37;101080.69;;;9.72;58.35
19736;BME280;32064;49.310;8.646;2023-04-10T04:21:03;101072.06;;;9.70;58.56
19736;BME280;32064;49.310;8.646;2023-04-10T04:23:28;101079.69;;;9.74;58.08
19736;BME280;32064;49.310;8.646;2023-04-10T04:25:54;101074.44;;;9.74;57.65
19736;BME280;32064;49.310;8.646;2023-04-10T04:28:21;101074.44;;;9.74;58.50
19736;BME280;32064;49.310;8.646;2023-04-10T04:30:47;101075.34;;;9.73;58.60
19736;BME280;32064;49.310;8.646;2023-04-10T04:33:17;101073.56;;;9.74;57.84
19736;BME280;32064;49.310;8.646;2023-04-10T04:35:42;101079.88;;;9.71;57.96
19736;BME280;32064;49.310;8.646;2023-04-10T04:38:07;101082.91;;;9.63;57.54
19736;BME280;32064;49.310;8.646;2023-04-10T04:40:33;101083.31;;;9.56;58.21
19736;BME280;32064;49.310;8.646;2023-04-10T04:42:58;101081.22;;;9.62;57.84
19736;BME280;32064;49.310;8.646;2023-04-10T04:45:24;101091.78;;;9.61;58.81
19736;BME280;32064;49.310;8.646;2023-04-10T04:47:49;101089.84;;;9.64;58.70
19736;BME280;32064;49.310;8.646;2023-04-10T04:50:15;101080.00;;;9.68;57.52
19736;BME280;32064;49.310;8.646;2023-04-10T04:52:40;101086.19;;;9.67;58.53
19736;BME280;32064;49.310;8.646;2023-04-10T04:55:06;101085.00;;;9.73;58.13
19736;BME280;32064;49.310;8.646;2023-04-10T04:57:34;101094.69;;;9.72;58.21
19736;BME280;32064;49.310;8.646;2023-04-10T04:59:59;101093.06;;;9.70;58.68
19736;BME280;32064;49.310;8.646;2023-04-10T05:02:25;101087.56;;;9.74;57.68
19736;BME280;32064;49.310;8.646;2023-04-10T05:04:50;101083.06;;;9.76;58.14
19736;BME280;32064;49.310;8.646;2023-04-10T05:07:16;101094.75;;;9.71;57.92
19736;BME280;32064;49.310;8.646;2023-04-10T05:09:41;101086.94;;;9.85;57.42
19736;BME280;32064;49.310;8.646;2023-04-10T05:12:06;101083.66;;;9.81;57.57
19736;BME280;32064;49.310;8.646;2023-04-10T05:14:32;101088.00;;;9.82;57.72
19736;BME280;32064;49.310;8.646;2023-04-10T05:16:57;101092.19;;;9.85;57.87
19736;BME280;32064;49.310;8.646;2023-04-10T05:19:23;101090.00;;;9.93;58.18
19736;BME280;32064;49.310;8.646;2023-04-10T05:21:51;101089.09;;;9.94;58.74
19736;BME280;32064;49.310;8.646;2023-04-10T05:24:16;101091.53;;;9.97;57.30
19736;BME280;32064;49.310;8.646;2023-04-10T05:26:42;101095.25;;;10.09;56.80
19736;BME280;32064;49.310;8.646;2023-04-10T05:29:07;101098.06;;;10.06;56.80
19736;BME280;32064;49.310;8.646;2023-04-10T05:31:33;101089.09;;;9.94;57.58
19736;BME280;32064;49.310;8.646;2023-04-10T05:33:58;101094.75;;;10.02;57.20
19736;BME280;32064;49.310;8.646;2023-04-10T05:36:23;101091.25;;;10.18;56.83
19736;BME280;32064;49.310;8.646;2023-04-10T05:38:49;101091.00;;;10.22;58.20
19736;BME280;32064;49.310;8.646;2023-04-10T05:41:15;101090.56;;;10.14;58.34
19736;BME280;32064;49.310;8.646;2023-04-10T05:43:40;101087.78;;;10.17;56.81
19736;BME280;32064;49.310;8.646;2023-04-10T05:46:06;101091.72;;;10.24;56.83
19736;BME280;32064;49.310;8.646;2023-04-10T05:48:31;101083.63;;;10.29;57.51
19736;BME280;32064;49.310;8.646;2023-04-10T05:50:56;101086.75;;;10.20;58.29
19736;BME280;32064;49.310;8.646;2023-04-10T05:53:27;101096.91;;;10.42;58.06
19736;BME280;32064;49.310;8.646;2023-04-10T05:55:59;101103.69;;;10.46;56.63
19736;BME280;32064;49.310;8.646;2023-04-10T05:58:26;101113.59;;;10.56;57.74
19736;BME280;32064;49.310;8.646;2023-04-10T06:00:52;101108.31;;;10.56;57.95
19736;BME280;32064;49.310;8.646;2023-04-10T06:03:18;101101.44;;;10.54;58.05
19736;BME280;32064;49.310;8.646;2023-04-10T06:05:44;101097.81;;;10.71;57.36
19736;BME280;32064;49.310;8.646;2023-04-10T06:08:10;101098.88;;;10.83;57.65
19736;BME280;32064;49.310;8.646;2023-04-10T06:10:35;101093.16;;;10.76;56.07
19736;BME280;32064;49.310;8.646;2023-04-10T06:13:01;101099.34;;;10.89;56.16
19736;BME280;32064;49.310;8.646;2023-04-10T06:15:26;101100.09;;;10.91;57.69
19736;BME280;32064;49.310;8.646;2023-04-10T06:17:51;101089.50;;;10.93;57.33
19736;BME280;32064;49.310;8.646;2023-04-10T06:20:18;101097.22;;;10.96;57.35
19736;BME280;32064;49.310;8.646;2023-04-10T06:22:43;101098.63;;;11.01;56.22
19736;BME280;32064;49.310;8.646;2023-04-10T06:25:09;101096.19;;;11.13;56.17
19736;BME280;32064;49.310;8.646;2023-04-10T06:27:34;101088.72;;;11.34;57.36
19736;BME280;32064;49.310;8.646;2023-04-10T06:30:00;101083.06;;;11.40;55.06
19736;BME280;32064;49.310;8.646;2023-04-10T06:32:26;101090.03;;;11.55;55.93
19736;BME280;32064;49.310;8.646;2023-04-10T06:34:51;101094.16;;;11.59;55.79
19736;BME280;32064;49.310;8.646;2023-04-10T06:37:17;101077.28;;;11.76;55.50
19736;BME280;32064;49.310;8.646;2023-04-10T06:39:42;101074.16;;;11.84;55.91
19736;BME280;32064;49.310;8.646;2023-04-10T06:42:08;101086.91;;;12.31;55.62
19736;BME280;32064;49.310;8.646;2023-04-10T06:44:33;101069.28;;;16.75;46.01
19736;BME280;32064;49.310;8.646;2023-04-10T06:46:58;101066.06;;;17.73;43.54
19736;BME280;32064;49.310;8.646;2023-04-10T06:49:24;101081.50;;;19.51;40.43
19736;BME280;32064;49.310;8.646;2023-04-10T06:51:50;101083.78;;;20.45;39.13
19736;BME280;32064;49.310;8.646;2023-04-10T06:54:16;101084.16;;;20.94;38.25
19736;BME280;32064;49.310;8.646;2023-04-10T06:56:41;101080.63;;;21.54;37.34
19736;BME280;32064;49.310;8.646;2023-04-10T06:59:06;101074.88;;;22.08;36.97
19736;BME280;32064;49.310;8.646;2023-04-10T07:01:32;101072.59;;;22.37;35.81
19736;BME280;32064;49.310;8.646;2023-04-10T07:03:57;101078.69;;;23.03;35.39
19736;BME280;32064;49.310;8.646;2023-04-10T07:06:23;101069.44;;;23.53;33.83
19736;BME280;32064;49.310;8.646;2023-04-10T07:08:49;101084.44;;;23.79;33.38
19736;BME280;32064;49.310;8.646;2023-04-10T07:11:14;101076.50;;;24.09;34.00
19736;BME280;32064;49.310;8.646;2023-04-10T07:13:40;101078.56;;;24.07;32.95
19736;BME280;32064;49.310;8.646;2023-04-10T07:16:06;101089.47;;;24.05;32.98
19736;BME280;32064;49.310;8.646;2023-04-10T07:18:35;101083.16;;;24.44;32.18
19736;BME280;32064;49.310;8.646;2023-04-10T07:21:09;101076.53;;;24.99;30.12
19736;BME280;32064;49.310;8.646;2023-04-10T07:23:34;101085.78;;;25.71;30.99
19736;BME280;32064;49.310;8.646;2023-04-10T07:26:00;101087.44;;;25.72;30.88
19736;BME280;32064;49.310;8.646;2023-04-10T07:28:25;101079.38;;;26.08;30.51
19736;BME280;32064;49.310;8.646;2023-04-10T07:30:51;101092.13;;;26.64;29.88
19736;BME280;32064;49.310;8.646;2023-04-10T07:33:16;101081.41;;;26.06;30.31
19736;BME280;32064;49.310;8.646;2023-04-10T07:35:42;101078.25;;;25.66;30.41
19736;BME280;32064;49.310;8.646;2023-04-10T07:38:07;101076.38;;;25.30;30.44
19736;BME280;32064;49.310;8.646;2023-04-10T07:40:33;101082.41;;;26.70;30.24
19736;BME280;32064;49.310;8.646;2023-04-10T07:42:58;101077.50;;;26.09;30.29
19736;BME280;32064;49.310;8.646;2023-04-10T07:45:24;101071.56;;;25.11;30.99
19736;BME280;32064;49.310;8.646;2023-04-10T07:47:49;101066.34;;;25.09;31.46
19736;BME280;32064;49.310;8.646;2023-04-10T07:50:15;101072.69;;;25.17;30.90
19736;BME280;32064;49.310;8.646;2023-04-10T07:52:41;101063.94;;;25.00;30.39
19736;BME280;32064;49.310;8.646;2023-04-10T07:55:07;101066.25;;;25.03;30.96
19736;BME280;32064;49.310;8.646;2023-04-10T07:57:33;101067.16;;;24.42;31.31
19736;BME280;32064;49.310;8.646;2023-04-10T07:59:59;101066.81;;;24.46;31.69
19736;BME280;32064;49.310;8.646;2023-04-10T08:02:25;101063.25;;;25.13;30.02
19736;BME280;32064;49.310;8.646;2023-04-10T08:04:50;101064.66;;;25.38;30.06
19736;BME280;32064;49.310;8.646;2023-04-10T08:07:20;101063.75;;;25.31;29.93
19736;BME280;32064;49.310;8.646;2023-04-10T08:09:46;101069.22;;;26.10;28.89
19736;BME280;32064;49.310;8.646;2023-04-10T08:12:12;101051.22;;;26.17;29.63
19736;BME280;32064;49.310;8.646;2023-04-10T08:14:37;101061.88;;;26.04;29.70
19736;BME280;32064;49.310;8.646;2023-04-10T08:17:02;101065.19;;;26.49;29.14
19736;BME280;32064;49.310;8.646;2023-04-10T08:19:28;101071.13;;;26.94;29.23
19736;BME280;32064;49.310;8.646;2023-04-10T08:21:53;101069.00;;;26.12;29.66
19736;BME280;32064;49.310;8.646;2023-04-10T08:24:18;101067.09;;;26.27;29.44
19736;BME280;32064;49.310;8.646;2023-04-10T08:26:46;101062.06;;;27.08;28.46
19736;BME280;32064;49.310;8.646;2023-04-10T08:29:12;101069.31;;;27.43;28.78
19736;BME280;32064;49.310;8.646;2023-04-10T08:31:38;101064.81;;;26.80;28.59
19736;BME280;32064;49.310;8.646;2023-04-10T08:34:03;101062.75;;;26.05;28.40
19736;BME280;32064;49.310;8.646;2023-04-10T08:36:28;101066.75;;;26.93;28.31
19736;BME280;32064;49.310;8.646;2023-04-10T08:38:55;101065.28;;;26.91;28.09
19736;BME280;32064;49.310;8.646;2023-04-10T08:41:21;101061.69;;;26.83;27.61
19736;BME280;32064;49.310;8.646;2023-04-10T08:43:47;101060.28;;;25.88;29.75
19736;BME280;32064;49.310;8.646;2023-04-10T08:46:14;101052.25;;;25.95;29.96
19736;BME280;32064;49.310;8.646;2023-04-10T08:51:19;101042.03;;;28.19;27.69
19736;BME280;32064;49.310;8.646;2023-04-10T08:53:48;101041.19;;;28.25;26.88
19736;BME280;32064;49.310;8.646;2023-04-10T08:56:15;101034.13;;;28.17;26.66
19736;BME280;32064;49.310;8.646;2023-04-10T08:58:42;101037.06;;;28.49;27.42
19736;BME280;32064;49.310;8.646;2023-04-10T09:01:08;101022.28;;;28.12;26.27
19736;BME280;32064;49.310;8.646;2023-04-10T09:03:35;101019.22;;;29.06;26.47
19736;BME280;32064;49.310;8.646;2023-04-10T09:06:04;101019.63;;;29.10;25.20
19736;BME280;32064;49.310;8.646;2023-04-10T09:08:30;101013.53;;;29.60;26.37
19736;BME280;32064;49.310;8.646;2023-04-10T09:10:56;101020.88;;;29.14;25.89
19736;BME280;32064;49.310;8.646;2023-04-10T09:16:01;101019.31;;;28.67;24.54
19736;BME280;32064;49.310;8.646;2023-04-10T09:18:50;101006.22;;;28.24;24.48
19736;BME280;32064;49.310;8.646;2023-04-10T09:21:19;101005.16;;;28.64;23.90
19736;BME280;32064;49.310;8.646;2023-04-10T09:23:46;100996.50;;;29.46;23.79
19736;BME280;32064;49.310;8.646;2023-04-10T09:26:29;101001.03;;;29.65;23.44
19736;BME280;32064;49.310;8.646;2023-04-10T09:31:35;100990.63;;;26.20;25.75
19736;BME280;32064;49.310;8.646;2023-04-10T09:34:20;100995.41;;;25.17;27.47
19736;BME280;32064;49.310;8.646;2023-04-10T09:36:57;100978.88;;;26.56;26.28
19736;BME280;32064;49.310;8.646;2023-04-10T09:41:57;100973.75;;;28.10;25.10
19736;BME280;32064;49.310;8.646;2023-04-10T09:44:30;100969.75;;;28.53;25.23
19736;BME280;32064;49.310;8.646;2023-04-10T09:49:48;100962.94;;;28.17;23.87
19736;BME280;32064;49.310;8.646;2023-04-10T09:52:17;100959.59;;;28.15;24.92
19736;BME280;32064;49.310;8.646;2023-04-10T09:54:43;100955.06;;;28.87;24.09
19736;BME280;32064;49.310;8.646;2023-04-10T09:57:09;100956.59;;;28.76;23.98
19736;BME280;32064;49.310;8.646;2023-04-10T09:59:36;100945.34;;;28.66;24.59
19736;BME280;32064;49.310;8.646;2023-04-10T10:02:03;100940.41;;;29.01;24.44
19736;BME280;32064;49.310;8.646;2023-04-10T10:04:29;100928.56;;;28.96;24.79
19736;BME280;32064;49.310;8.646;2023-04-10T10:06:55;100939.41;;;28.11;24.88
19736;BME280;32064;49.310;8.646;2023-04-10T10:09:21;100929.00;;;27.88;25.04
19736;BME280;32064;49.310;8.646;2023-04-10T10:11:47;100922.53;;;27.49;25.02
19736;BME280;32064;49.310;8.646;2023-04-10T10:14:16;100926.28;;;27.61;24.87
19736;BME280;32064;49.310;8.646;2023-04-10T10:16:46;100926.63;;;27.31;25.04
19736;BME280;32064;49.310;8.646;2023-04-10T10:19:20;100910.25;;;27.46;25.10
19736;BME280;32064;49.310;8.646;2023-04-10T10:21:51;100912.31;;;27.51;25.06
19736;BME280;32064;49.310;8.646;2023-04-10T10:24:18;100912.75;;;27.68;24.74
19736;BME280;32064;49.310;8.646;2023-04-10T10:26:46;100904.59;;;28.28;24.69
19736;BME280;32064;49.310;8.646;2023-04-10T10:29:14;100912.09;;;28.32;25.19
19736;BME280;32064;49.310;8.646;2023-04-10T10:31:41;100905.66;;;29.62;24.22
19736;BME280;32064;49.310;8.646;2023-04-10T10:34:07;100912.69;;;30.56;23.89
19736;BME280;32064;49.310;8.646;2023-04-10T10:36:37;100905.91;;;30.84;23.12
19736;BME280;32064;49.310;8.646;2023-04-10T10:41:43;100902.03;;;30.18;23.12
19736;BME280;32064;49.310;8.646;2023-04-10T10:44:19;100897.91;;;30.89;22.42
19736;BME280;32064;49.310;8.646;2023-04-10T10:47:09;100888.69;;;32.09;22.26
19736;BME280;32064;49.310;8.646;2023-04-10T10:49:55;100875.84;;;32.57;21.74
19736;BME280;32064;49.310;8.646;2023-04-10T10:52:50;100874.94;;;31.81;21.73
19736;BME280;32064;49.310;8.646;2023-04-10T10:57:48;100868.06;;;31.78;21.99
19736;BME280;32064;49.310;8.646;2023-04-10T11:00:15;100861.72;;;32.08;22.20
19736;BME280;32064;49.310;8.646;2023-04-10T11:02:40;100855.91;;;31.57;21.68
19736;BME280;32064;49.310;8.646;2023-04-10T11:05:06;100850.94;;;31.54;22.30
19736;BME280;32064;49.310;8.646;2023-04-10T11:11:04;100847.94;;;31.67;21.10
19736;BME280;32064;49.310;8.646;2023-04-10T11:13:34;100842.28;;;32.16;21.42
19736;BME280;32064;49.310;8.646;2023-04-10T11:16:01;100849.16;;;32.07;21.82
19736;BME280;32064;49.310;8.646;2023-04-10T11:21:26;100847.72;;;31.69;20.24
19736;BME280;32064;49.310;8.646;2023-04-10T11:31:33;100817.91;;;30.67;22.24
19736;BME280;32064;49.310;8.646;2023-04-10T11:34:02;100812.97;;;29.90;22.05
19736;BME280;32064;49.310;8.646;2023-04-10T11:36:28;100806.19;;;29.56;22.63
19736;BME280;32064;49.310;8.646;2023-04-10T11:41:30;100793.38;;;27.44;22.27
19736;BME280;32064;49.310;8.646;2023-04-10T11:44:00;100786.44;;;26.88;23.53
19736;BME280;32064;49.310;8.646;2023-04-10T11:46:27;100789.13;;;26.69;24.03
19736;BME280;32064;49.310;8.646;2023-04-10T11:49:01;100790.34;;;26.66;23.80
19736;BME280;32064;49.310;8.646;2023-04-10T11:51:28;100778.13;;;26.70;24.75
19736;BME280;32064;49.310;8.646;2023-04-10T11:54:10;100770.19;;;26.07;24.72
19736;BME280;32064;49.310;8.646;2023-04-10T11:56:37;100776.19;;;25.74;24.52
19736;BME280;32064;49.310;8.646;2023-04-10T11:59:03;100780.69;;;25.67;24.66
19736;BME280;32064;49.310;8.646;2023-04-10T12:01:32;100769.69;;;25.62;24.66
19736;BME280;32064;49.310;8.646;2023-04-10T12:03:58;100758.53;;;25.65;24.90
19736;BME280;32064;49.310;8.646;2023-04-10T12:06:24;100752.34;;;25.43;25.06
19736;BME280;32064;49.310;8.646;2023-04-10T12:08:50;100754.13;;;25.29;25.30
19736;BME280;32064;49.310;8.646;2023-04-10T12:11:20;100741.81;;;25.20;25.33
19736;BME280;32064;49.310;8.646;2023-04-10T12:13:47;100745.50;;;25.41;25.64
19736;BME280;32064;49.310;8.646;2023-04-10T12:16:15;100741.97;;;25.40;25.50
19736;BME280;32064;49.310;8.646;2023-04-10T12:18:41;100739.53;;;25.45;25.08
19736;BME280;32064;49.310;8.646;2023-04-10T12:21:07;100737.31;;;25.27;25.38
19736;BME280;32064;49.310;8.646;2023-04-10T12:23:35;100728.16;;;25.00;25.56
19736;BME280;32064;49.310;8.646;2023-04-10T12:26:13;100718.00;;;25.02;24.84
19736;BME280;32064;49.310;8.646;2023-04-10T12:28:41;100721.88;;;25.15;25.55
19736;BME280;32064;49.310;8.646;2023-04-10T12:31:07;100719.25;;;25.21;25.61
19736;BME280;32064;49.310;8.646;2023-04-10T12:33:33;100710.97;;;25.23;25.23
19736;BME280;32064;49.310;8.646;2023-04-10T12:35:58;100707.59;;;24.93;24.51
19736;BME280;32064;49.310;8.646;2023-04-10T12:38:41;100707.00;;;24.97;24.68
19736;BME280;32064;49.310;8.646;2023-04-10T12:41:08;100699.81;;;25.04;25.10
19736;BME280;32064;49.310;8.646;2023-04-10T12:43:43;100702.16;;;24.86;24.68
19736;BME280;32064;49.310;8.646;2023-04-10T12:46:09;100699.88;;;25.11;25.08
19736;BME280;32064;49.310;8.646;2023-04-10T12:48:35;100700.50;;;25.13;24.83
19736;BME280;32064;49.310;8.646;2023-04-10T12:51:01;100695.81;;;25.22;24.74
19736;BME280;32064;49.310;8.646;2023-04-10T12:53:27;100672.91;;;25.33;25.43
19736;BME280;32064;49.310;8.646;2023-04-10T12:56:01;100676.09;;;25.43;24.75
19736;BME280;32064;49.310;8.646;2023-04-10T12:58:28;100679.72;;;25.28;25.20
19736;BME280;32064;49.310;8.646;2023-04-10T13:00:56;100677.19;;;25.20;25.14
19736;BME280;32064;49.310;8.646;2023-04-10T13:03:22;100671.69;;;25.42;24.43
19736;BME280;32064;49.310;8.646;2023-04-10T13:05:48;100678.53;;;25.38;24.63
19736;BME280;32064;49.310;8.646;2023-04-10T13:08:13;100671.88;;;25.34;24.54
19736;BME280;32064;49.310;8.646;2023-04-10T13:10:39;100664.00;;;24.82;23.74
19736;BME280;32064;49.310;8.646;2023-04-10T13:13:06;100665.19;;;24.73;24.63
19736;BME280;32064;49.310;8.646;2023-04-10T13:15:31;100656.16;;;24.59;24.52
19736;BME280;32064;49.310;8.646;2023-04-10T13:17:59;100650.16;;;24.57;25.10
19736;BME280;32064;49.310;8.646;2023-04-10T13:20:24;100647.38;;;24.51;24.55
19736;BME280;32064;49.310;8.646;2023-04-10T13:22:50;100641.38;;;24.34;25.25
19736;BME280;32064;49.310;8.646;2023-04-10T13:25:15;100649.41;;;24.27;25.44
19736;BME280;32064;49.310;8.646;2023-04-10T13:27:41;100644.06;;;24.49;25.28
19736;BME280;32064;49.310;8.646;2023-04-10T13:30:07;100636.78;;;23.91;25.45
19736;BME280;32064;49.310;8.646;2023-04-10T13:32:32;100638.00;;;24.25;25.10